Bucketlist — WDG2966 — position and weather

sailwx.info

Track history (hours):
 
Tides and Currents Weather Stations Pressure Air Temp Water Temp Dewpoint Dewpoint Depression Visibility Wind Speed Wind Dir Waves Ship Positions

Bucketlist

Owner: Fulginiti, Linda M, Jasper, OR. More information available from US FCC via Universal Licensing System and Coast Guard Vessel Documentation Center.

Last reported at 2017-Sep-03 17:01 UTC. Time now 2017-Oct-22 06:48 UTC.
Position N 48°26' W 122°56'.
Warning: this ship's position is 48 days out of date.

Length 10 m.

Type: Pleasure craft. MMSI: 367521080.

Date/timePositionNaut miles runAvg speedWind from/ knotsBaromVisibWave heightAir tempDewpointWater temp
2017-Sep-03 17:01N 48°26' W 122°56'0 8.3
2017-Sep-03 17:00N 48°26' W 122°56'1 1.6
2017-Sep-03 16:30N 48°27' W 122°57'4 7.5
2017-Sep-03 16:00N 48°31' W 122°58'3 5.6
2017-Sep-03 15:29N 48°32' W 123°01'0 0.0
2017-Sep-03 14:59N 48°32' W 123°01'0 0.0
2017-Sep-03 05:46N 48°32' W 123°01'0 0.0
2017-Sep-03 05:28N 48°32' W 123°01'0 0.0
2017-Sep-03 04:58N 48°32' W 123°01'0 0.0
2017-Sep-03 04:28N 48°32' W 123°01'0 0.0
2017-Sep-03 02:03N 48°32' W 123°01'0 0.0
2017-Sep-03 02:00N 48°32' W 123°01'0 0.0
2017-Sep-03 01:30N 48°32' W 123°01'0 0.0
2017-Sep-03 01:00N 48°32' W 123°01'1 1.3
2017-Sep-03 00:29N 48°33' W 123°00'18 6.6
2017-Sep-02 21:44N 48°43' W 123°23'2 7.2
2017-Sep-02 21:30N 48°44' W 123°23'1 2.6
2017-Sep-02 20:59N 48°43' W 123°24'1 2.3
2017-Sep-02 20:26N 48°42' W 123°22'0 0.7
2017-Sep-02 20:00N 48°42' W 123°22'3 6.7
2017-Sep-02 19:30N 48°42' W 123°27'4 7.5
2017-Sep-02 19:00N 48°40' W 123°31'2 0.3
2017-Sep-02 13:03N 48°39' W 123°33'0 0.0
2017-Sep-02 12:39N 48°39' W 123°33'0 0.0
2017-Sep-02 12:30N 48°39' W 123°33'0 0.0
2017-Sep-02 11:57N 48°39' W 123°33'0 0.0
2017-Sep-02 11:27N 48°39' W 123°33'0 0.0
2017-Sep-02 11:00N 48°39' W 123°33'0 0.0
2017-Sep-02 10:24N 48°39' W 123°33'0 0.0
2017-Sep-02 09:54N 48°39' W 123°33'0 0.0
2017-Sep-02 09:30N 48°39' W 123°33'0 0.0
2017-Sep-02 09:00N 48°39' W 123°33'0 0.0
2017-Sep-02 08:27N 48°39' W 123°33'0 0.0
2017-Sep-02 08:00N 48°39' W 123°33'0 0.0
2017-Sep-02 07:30N 48°39' W 123°33'0 0.0
2017-Sep-02 06:54N 48°39' W 123°33'0 0.0
2017-Sep-02 06:30N 48°39' W 123°33'0 0.0
2017-Sep-02 06:00N 48°39' W 123°33'0 0.0
2017-Sep-02 05:00N 48°39' W 123°33'0 0.0
2017-Sep-02 04:30N 48°39' W 123°33'0 0.0
2017-Sep-02 04:00N 48°39' W 123°33'0 0.0
2017-Sep-02 03:30N 48°39' W 123°33'0 0.0
2017-Sep-02 03:00N 48°39' W 123°33'0 0.0
2017-Sep-02 02:30N 48°39' W 123°33'0 0.0
2017-Sep-02 02:00N 48°39' W 123°33'0 0.0
2017-Sep-02 01:12N 48°39' W 123°33'0 0.0
2017-Sep-02 00:36N 48°39' W 123°33'0 0.0
2017-Sep-02 00:30N 48°39' W 123°33'0 0.0
2017-Sep-02 00:00N 48°39' W 123°33'0 0.0
2017-Sep-01 23:18N 48°39' W 123°33'0 1.5
2017-Sep-01 23:00N 48°39' W 123°32'4 8.5
2017-Sep-01 22:30N 48°42' W 123°28'7 8.9
2017-Sep-01 21:46N 48°47' W 123°21'2 7.5
2017-Sep-01 21:30N 48°49' W 123°20'3 6.4
2017-Sep-01 21:00N 48°49' W 123°15'2 3.5
2017-Sep-01 20:30N 48°49' W 123°13'2 1.3
2017-Sep-01 19:13N 48°49' W 123°15'2 9.3
2017-Sep-01 19:00N 48°49' W 123°18'4 8.1
2017-Sep-01 18:30N 48°51' W 123°24'3 6.8
2017-Sep-01 18:00N 48°51' W 123°29'1 0.5
2017-Sep-01 16:32N 48°51' W 123°30'0 0.0
2017-Sep-01 16:20N 48°51' W 123°30'0 0.0
2017-Sep-01 15:44N 48°51' W 123°30'0 0.0
2017-Sep-01 15:26N 48°51' W 123°30'0 0.0
2017-Sep-01 13:56N 48°51' W 123°30'0 0.0
2017-Sep-01 13:20N 48°51' W 123°30'0 0.0
2017-Sep-01 12:56N 48°51' W 123°30'0 0.0
2017-Sep-01 11:38N 48°51' W 123°30'0 0.0
2017-Sep-01 11:17N 48°51' W 123°30'0 0.0
2017-Sep-01 08:51N 48°51' W 123°30'0 0.0
2017-Aug-31 23:39N 48°51' W 123°30'0 0.0
2017-Aug-31 23:27N 48°51' W 123°30'0 0.1
2017-Aug-31 22:50N 48°51' W 123°30'1 3.9
2017-Aug-31 22:30N 48°51' W 123°28'3 5.9
2017-Aug-31 21:57N 48°53' W 123°24'2 4.2
2017-Aug-31 21:30N 48°54' W 123°25'8 6.8
2017-Aug-31 20:21N 48°56' W 123°37'3 0.1
2017-Aug-30 20:01N 48°58' W 123°41'1 3.7
2017-Aug-30 19:49N 48°58' W 123°42'1 4.5
2017-Aug-30 19:30N 48°58' W 123°44'4 1.3
2017-Aug-30 16:40N 48°60' W 123°49'0 0.0
2017-Aug-30 06:56N 48°60' W 123°49'0 0.0
2017-Aug-30 00:26N 48°60' W 123°49'0 0.0
2017-Aug-29 20:55N 48°60' W 123°49'3 5.8
2017-Aug-29 20:28N 48°59' W 123°45'3 7.3
2017-Aug-29 20:00N 49°01' W 123°41'11 0.4
2017-Aug-28 19:25N 48°54' W 123°29'3 7.9
2017-Aug-28 18:59N 48°51' W 123°25'4 7.5
2017-Aug-28 18:30N 48°48' W 123°23'6 7.2
2017-Aug-28 17:37N 48°43' W 123°28'1 8.1
2017-Aug-28 17:30N 48°43' W 123°29'5 8.3
2017-Aug-28 16:56N 48°45' W 123°36'0 0.8
2017-Aug-28 16:28N 48°46' W 123°36'0 0.0
2017-Aug-28 15:22N 48°46' W 123°36'0 0.0
2017-Aug-28 14:58N 48°46' W 123°36'0 0.0
2017-Aug-28 13:52N 48°46' W 123°36'0 0.0
2017-Aug-28 13:10N 48°46' W 123°36'0 0.0
2017-Aug-28 12:58N 48°46' W 123°36'0 0.0
2017-Aug-28 12:28N 48°46' W 123°36'0 0.0
2017-Aug-28 11:58N 48°46' W 123°36'0 0.0
2017-Aug-28 11:22N 48°46' W 123°36'0 0.0
2017-Aug-28 10:58N 48°46' W 123°36'0 0.0
2017-Aug-28 10:28N 48°46' W 123°36'0 0.0
2017-Aug-28 09:58N 48°46' W 123°36'0 0.0
2017-Aug-28 04:40N 48°46' W 123°36'0 0.0
2017-Aug-28 04:10N 48°46' W 123°36'0 0.0
2017-Aug-28 03:52N 48°46' W 123°36'0 0.0
2017-Aug-28 03:28N 48°46' W 123°36'0 0.0
2017-Aug-28 02:34N 48°46' W 123°36'0 0.0
2017-Aug-28 02:25N 48°46' W 123°36'0 0.0
2017-Aug-28 01:52N 48°46' W 123°36'0 0.0
2017-Aug-28 01:22N 48°46' W 123°36'0 0.0
2017-Aug-28 00:40N 48°46' W 123°36'0 0.0
2017-Aug-28 00:28N 48°46' W 123°36'0 0.0
2017-Aug-27 23:43N 48°46' W 123°36'0 0.0
2017-Aug-27 23:13N 48°46' W 123°36'0 0.0
2017-Aug-27 21:58N 48°46' W 123°36'0 0.0
2017-Aug-27 21:25N 48°46' W 123°36'0 0.0
2017-Aug-26 23:31N 48°46' W 123°36'0 0.0
2017-Aug-26 23:01N 48°46' W 123°36'0 0.0
2017-Aug-26 22:49N 48°46' W 123°36'0 0.0
2017-Aug-26 22:25N 48°46' W 123°36'0 0.2
2017-Aug-26 21:56N 48°46' W 123°36'3 8.0
2017-Aug-26 21:30N 48°43' W 123°32'12 4.9
2017-Aug-26 19:08N 48°39' W 123°16'1 9.0
2017-Aug-26 19:00N 48°39' W 123°14'10 7.6
2017-Aug-26 17:39N 48°34' W 123°01'1 6.8
2017-Aug-26 17:30N 48°33' W 123°00'0 0.8
2017-Aug-26 16:55N 48°32' W 123°01'0 0.0
2017-Aug-26 16:28N 48°32' W 123°01'0 0.0
2017-Aug-26 15:55N 48°32' W 123°01'0 0.0
2017-Aug-26 04:24N 48°32' W 123°01'0 0.0
2017-Aug-26 04:00N 48°32' W 123°01'0 0.0
2017-Aug-26 03:30N 48°32' W 123°01'0 0.0
2017-Aug-26 03:00N 48°32' W 123°01'0 0.0
2017-Aug-26 02:24N 48°32' W 123°01'0 0.0
2017-Aug-26 01:54N 48°32' W 123°01'0 0.0
2017-Aug-26 01:24N 48°32' W 123°01'0 0.0
2017-Aug-26 01:00N 48°32' W 123°01'0 0.0
2017-Aug-26 00:30N 48°32' W 123°01'0 0.0
2017-Aug-26 00:00N 48°32' W 123°01'0 0.0
2017-Aug-25 23:24N 48°32' W 123°01'0 0.0
2017-Aug-25 23:00N 48°32' W 123°01'0 1.0
2017-Aug-25 22:30N 48°33' W 123°00'4 7.6
2017-Aug-25 22:00N 48°29' W 122°57'5 9.4
2017-Aug-25 21:30N 48°25' W 122°55'  
Track history (hours):
 
Tides and Currents Weather Stations Pressure Air Temp Water Temp Dewpoint Dewpoint Depression Visibility Wind Speed Wind Dir Waves Ship Positions

Bucketlist

Owner: Fulginiti, Linda M, Jasper, OR. More information available from US FCC via Universal Licensing System and Coast Guard Vessel Documentation Center.

Last reported at 2017-Sep-03 17:01 UTC. Time now 2017-Oct-22 06:48 UTC.
Position N 48°26' W 122°56'.
Warning: this ship's position is 48 days out of date.

Length 10 m.

Type: Pleasure craft. MMSI: 367521080.

Date/timePositionNaut miles runAvg speedWind from/ knotsBaromVisibWave heightAir tempDewpointWater temp
2017-Sep-03 17:01N 48°26' W 122°56'0 8.3
2017-Sep-03 17:00N 48°26' W 122°56'1 1.6
2017-Sep-03 16:30N 48°27' W 122°57'4 7.5
2017-Sep-03 16:00N 48°31' W 122°58'3 5.6
2017-Sep-03 15:29N 48°32' W 123°01'0 0.0
2017-Sep-03 14:59N 48°32' W 123°01'0 0.0
2017-Sep-03 05:46N 48°32' W 123°01'0 0.0
2017-Sep-03 05:28N 48°32' W 123°01'0 0.0
2017-Sep-03 04:58N 48°32' W 123°01'0 0.0
2017-Sep-03 04:28N 48°32' W 123°01'0 0.0
2017-Sep-03 02:03N 48°32' W 123°01'0 0.0
2017-Sep-03 02:00N 48°32' W 123°01'0 0.0
2017-Sep-03 01:30N 48°32' W 123°01'0 0.0
2017-Sep-03 01:00N 48°32' W 123°01'1 1.3
2017-Sep-03 00:29N 48°33' W 123°00'18 6.6
2017-Sep-02 21:44N 48°43' W 123°23'2 7.2
2017-Sep-02 21:30N 48°44' W 123°23'1 2.6
2017-Sep-02 20:59N 48°43' W 123°24'1 2.3
2017-Sep-02 20:26N 48°42' W 123°22'0 0.7
2017-Sep-02 20:00N 48°42' W 123°22'3 6.7
2017-Sep-02 19:30N 48°42' W 123°27'4 7.5
2017-Sep-02 19:00N 48°40' W 123°31'2 0.3
2017-Sep-02 13:03N 48°39' W 123°33'0 0.0
2017-Sep-02 12:39N 48°39' W 123°33'0 0.0
2017-Sep-02 12:30N 48°39' W 123°33'0 0.0
2017-Sep-02 11:57N 48°39' W 123°33'0 0.0
2017-Sep-02 11:27N 48°39' W 123°33'0 0.0
2017-Sep-02 11:00N 48°39' W 123°33'0 0.0
2017-Sep-02 10:24N 48°39' W 123°33'0 0.0
2017-Sep-02 09:54N 48°39' W 123°33'0 0.0
2017-Sep-02 09:30N 48°39' W 123°33'0 0.0
2017-Sep-02 09:00N 48°39' W 123°33'0 0.0
2017-Sep-02 08:27N 48°39' W 123°33'0 0.0
2017-Sep-02 08:00N 48°39' W 123°33'0 0.0
2017-Sep-02 07:30N 48°39' W 123°33'0 0.0
2017-Sep-02 06:54N 48°39' W 123°33'0 0.0
2017-Sep-02 06:30N 48°39' W 123°33'0 0.0
2017-Sep-02 06:00N 48°39' W 123°33'0 0.0
2017-Sep-02 05:00N 48°39' W 123°33'0 0.0
2017-Sep-02 04:30N 48°39' W 123°33'0 0.0
2017-Sep-02 04:00N 48°39' W 123°33'0 0.0
2017-Sep-02 03:30N 48°39' W 123°33'0 0.0
2017-Sep-02 03:00N 48°39' W 123°33'0 0.0
2017-Sep-02 02:30N 48°39' W 123°33'0 0.0
2017-Sep-02 02:00N 48°39' W 123°33'0 0.0
2017-Sep-02 01:12N 48°39' W 123°33'0 0.0
2017-Sep-02 00:36N 48°39' W 123°33'0 0.0
2017-Sep-02 00:30N 48°39' W 123°33'0 0.0
2017-Sep-02 00:00N 48°39' W 123°33'0 0.0
2017-Sep-01 23:18N 48°39' W 123°33'0 1.5
2017-Sep-01 23:00N 48°39' W 123°32'4 8.5
2017-Sep-01 22:30N 48°42' W 123°28'7 8.9
2017-Sep-01 21:46N 48°47' W 123°21'2 7.5
2017-Sep-01 21:30N 48°49' W 123°20'3 6.4
2017-Sep-01 21:00N 48°49' W 123°15'2 3.5
2017-Sep-01 20:30N 48°49' W 123°13'2 1.3
2017-Sep-01 19:13N 48°49' W 123°15'2 9.3
2017-Sep-01 19:00N 48°49' W 123°18'4 8.1
2017-Sep-01 18:30N 48°51' W 123°24'3 6.8
2017-Sep-01 18:00N 48°51' W 123°29'1 0.5
2017-Sep-01 16:32N 48°51' W 123°30'0 0.0
2017-Sep-01 16:20N 48°51' W 123°30'0 0.0
2017-Sep-01 15:44N 48°51' W 123°30'0 0.0
2017-Sep-01 15:26N 48°51' W 123°30'0 0.0
2017-Sep-01 13:56N 48°51' W 123°30'0 0.0
2017-Sep-01 13:20N 48°51' W 123°30'0 0.0
2017-Sep-01 12:56N 48°51' W 123°30'0 0.0
2017-Sep-01 11:38N 48°51' W 123°30'0 0.0
2017-Sep-01 11:17N 48°51' W 123°30'0 0.0
2017-Sep-01 08:51N 48°51' W 123°30'0 0.0
2017-Aug-31 23:39N 48°51' W 123°30'0 0.0
2017-Aug-31 23:27N 48°51' W 123°30'0 0.1
2017-Aug-31 22:50N 48°51' W 123°30'1 3.9
2017-Aug-31 22:30N 48°51' W 123°28'3 5.9
2017-Aug-31 21:57N 48°53' W 123°24'2 4.2
2017-Aug-31 21:30N 48°54' W 123°25'8 6.8
2017-Aug-31 20:21N 48°56' W 123°37'3 0.1
2017-Aug-30 20:01N 48°58' W 123°41'1 3.7
2017-Aug-30 19:49N 48°58' W 123°42'1 4.5
2017-Aug-30 19:30N 48°58' W 123°44'4 1.3
2017-Aug-30 16:40N 48°60' W 123°49'0 0.0
2017-Aug-30 06:56N 48°60' W 123°49'0 0.0
2017-Aug-30 00:26N 48°60' W 123°49'0 0.0
2017-Aug-29 20:55N 48°60' W 123°49'3 5.8
2017-Aug-29 20:28N 48°59' W 123°45'3 7.3
2017-Aug-29 20:00N 49°01' W 123°41'11 0.4
2017-Aug-28 19:25N 48°54' W 123°29'3 7.9
2017-Aug-28 18:59N 48°51' W 123°25'4 7.5
2017-Aug-28 18:30N 48°48' W 123°23'6 7.2
2017-Aug-28 17:37N 48°43' W 123°28'1 8.1
2017-Aug-28 17:30N 48°43' W 123°29'5 8.3
2017-Aug-28 16:56N 48°45' W 123°36'0 0.8
2017-Aug-28 16:28N 48°46' W 123°36'0 0.0
2017-Aug-28 15:22N 48°46' W 123°36'0 0.0
2017-Aug-28 14:58N 48°46' W 123°36'0 0.0
2017-Aug-28 13:52N 48°46' W 123°36'0 0.0
2017-Aug-28 13:10N 48°46' W 123°36'0 0.0
2017-Aug-28 12:58N 48°46' W 123°36'0 0.0
2017-Aug-28 12:28N 48°46' W 123°36'0 0.0
2017-Aug-28 11:58N 48°46' W 123°36'0 0.0
2017-Aug-28 11:22N 48°46' W 123°36'0 0.0
2017-Aug-28 10:58N 48°46' W 123°36'0 0.0
2017-Aug-28 10:28N 48°46' W 123°36'0 0.0
2017-Aug-28 09:58N 48°46' W 123°36'0 0.0
2017-Aug-28 04:40N 48°46' W 123°36'0 0.0
2017-Aug-28 04:10N 48°46' W 123°36'0 0.0
2017-Aug-28 03:52N 48°46' W 123°36'0 0.0
2017-Aug-28 03:28N 48°46' W 123°36'0 0.0
2017-Aug-28 02:34N 48°46' W 123°36'0 0.0
2017-Aug-28 02:25N 48°46' W 123°36'0 0.0
2017-Aug-28 01:52N 48°46' W 123°36'0 0.0
2017-Aug-28 01:22N 48°46' W 123°36'0 0.0
2017-Aug-28 00:40N 48°46' W 123°36'0 0.0
2017-Aug-28 00:28N 48°46' W 123°36'0 0.0
2017-Aug-27 23:43N 48°46' W 123°36'0 0.0
2017-Aug-27 23:13N 48°46' W 123°36'0 0.0
2017-Aug-27 21:58N 48°46' W 123°36'0 0.0
2017-Aug-27 21:25N 48°46' W 123°36'0 0.0
2017-Aug-26 23:31N 48°46' W 123°36'0 0.0
2017-Aug-26 23:01N 48°46' W 123°36'0 0.0
2017-Aug-26 22:49N 48°46' W 123°36'0 0.0
2017-Aug-26 22:25N 48°46' W 123°36'0 0.2
2017-Aug-26 21:56N 48°46' W 123°36'3 8.0
2017-Aug-26 21:30N 48°43' W 123°32'12 4.9
2017-Aug-26 19:08N 48°39' W 123°16'1 9.0
2017-Aug-26 19:00N 48°39' W 123°14'10 7.6
2017-Aug-26 17:39N 48°34' W 123°01'1 6.8
2017-Aug-26 17:30N 48°33' W 123°00'0 0.8
2017-Aug-26 16:55N 48°32' W 123°01'0 0.0
2017-Aug-26 16:28N 48°32' W 123°01'0 0.0
2017-Aug-26 15:55N 48°32' W 123°01'0 0.0
2017-Aug-26 04:24N 48°32' W 123°01'0 0.0
2017-Aug-26 04:00N 48°32' W 123°01'0 0.0
2017-Aug-26 03:30N 48°32' W 123°01'0 0.0
2017-Aug-26 03:00N 48°32' W 123°01'0 0.0
2017-Aug-26 02:24N 48°32' W 123°01'0 0.0
2017-Aug-26 01:54N 48°32' W 123°01'0 0.0
2017-Aug-26 01:24N 48°32' W 123°01'0 0.0
2017-Aug-26 01:00N 48°32' W 123°01'0 0.0
2017-Aug-26 00:30N 48°32' W 123°01'0 0.0
2017-Aug-26 00:00N 48°32' W 123°01'0 0.0
2017-Aug-25 23:24N 48°32' W 123°01'0 0.0
2017-Aug-25 23:00N 48°32' W 123°01'0 1.0
2017-Aug-25 22:30N 48°33' W 123°00'4 7.6
2017-Aug-25 22:00N 48°29' W 122°57'5 9.4
2017-Aug-25 21:30N 48°25' W 122°55'  

Dump ship's entire track history